Time;durP1;ratioP1;P1;durP2;ratioP2;P2;SDS_P1;SDS_P2;PMS_P1;PMS_P2;Temp;Humidity;BMP_temperature;BMP_pressure;BME280_temperature;BME280_humidity;BME280_pressure;Samples;Min_cycle;Max_cycle;Signal;HPM_P1;HPM_P2
2024/01/28 00:01:15;;;;;;;25.25;10.65;;;;;;;;;;4996272;28;20768;-59
2024/01/28 00:03:40;;;;;;;23.80;10.00;;;;;;;;;;4999242;28;20088;-59
2024/01/28 00:06:05;;;;;;;23.90;9.77;;;;;;;;;;5012019;28;20087;-59
2024/01/28 00:08:31;;;;;;;25.50;9.52;;;;;;;;;;5003732;28;20286;-59
2024/01/28 00:10:56;;;;;;;24.00;8.75;;;;;;;;;;5000364;28;20065;-60
2024/01/28 00:13:24;;;;;;;25.92;9.32;;;;;;;;;;4996720;28;20033;-59
2024/01/28 00:15:49;;;;;;;25.63;8.95;;;;;;;;;;5001794;28;20498;-61
2024/01/28 00:18:15;;;;;;;23.80;8.95;;;;;;;;;;4996142;28;20046;-61
2024/01/28 00:20:40;;;;;;;24.27;8.90;;;;;;;;;;5004805;28;20394;-61
2024/01/28 00:23:05;;;;;;;24.60;9.10;;;;;;;;;;4993834;28;20272;-60
2024/01/28 00:25:30;;;;;;;25.90;9.10;;;;;;;;;;5000042;28;20098;-60
2024/01/28 00:27:55;;;;;;;24.23;8.93;;;;;;;;;;5010812;28;20288;-60
2024/01/28 00:30:20;;;;;;;24.13;9.27;;;;;;;;;;5003833;28;20277;-60
2024/01/28 00:32:46;;;;;;;23.60;8.00;;;;;;;;;;5005521;28;20280;-60
2024/01/28 00:35:11;;;;;;;23.67;8.15;;;;;;;;;;5009834;28;20281;-60
2024/01/28 00:37:36;;;;;;;24.25;11.65;;;;;;;;;;5001916;28;20036;-60
2024/01/28 00:40:03;;;;;;;24.20;8.18;;;;;;;;;;4993579;28;20422;-60
2024/01/28 00:42:28;;;;;;;25.80;8.52;;;;;;;;;;5004845;28;20018;-60
2024/01/28 00:44:53;;;;;;;24.67;9.10;;;;;;;;;;4993157;28;20025;-60
2024/01/28 00:47:19;;;;;;;27.13;8.70;;;;;;;;;;4999665;28;20276;-59
2024/01/28 00:49:44;;;;;;;24.42;8.20;;;;;;;;;;5008536;28;20265;-60
2024/01/28 00:52:09;;;;;;;24.53;9.10;;;;;;;;;;5009684;28;20054;-59
2024/01/28 00:54:34;;;;;;;28.37;11.90;;;;;;;;;;5002089;28;20355;-60
2024/01/28 00:57:00;;;;;;;24.83;10.60;;;;;;;;;;4992621;28;20293;-60
2024/01/28 00:59:25;;;;;;;25.35;9.32;;;;;;;;;;4999042;28;20402;-62
2024/01/28 01:01:52;;;;;;;22.40;7.90;;;;;;;;;;5010492;28;20040;-58
2024/01/28 01:04:17;;;;;;;24.42;8.38;;;;;;;;;;5004321;28;20757;-58
2024/01/28 01:06:43;;;;;;;23.67;7.67;;;;;;;;;;4999664;28;20034;-59
2024/01/28 01:09:08;;;;;;;25.13;8.40;;;;;;;;;;4995916;28;20278;-59
2024/01/28 01:11:33;;;;;;;22.25;7.70;;;;;;;;;;5003678;28;20466;-59
2024/01/28 01:13:59;;;;;;;25.00;9.85;;;;;;;;;;5009808;28;20026;-59
2024/01/28 01:16:24;;;;;;;23.83;8.98;;;;;;;;;;5004357;28;20033;-59
2024/01/28 01:18:49;;;;;;;24.88;8.70;;;;;;;;;;5003387;28;20026;-59
2024/01/28 01:21:14;;;;;;;28.03;8.53;;;;;;;;;;5003954;28;20030;-59
2024/01/28 01:23:39;;;;;;;24.93;8.53;;;;;;;;;;5006572;28;20760;-59
2024/01/28 01:26:04;;;;;;;23.58;8.25;;;;;;;;;;5004894;28;20296;-59
2024/01/28 01:28:33;;;;;;;24.77;8.73;;;;;;;;;;5000309;28;20261;-59
2024/01/28 01:30:59;;;;;;;22.63;7.90;;;;;;;;;;4996320;28;20438;-59
2024/01/28 01:33:24;;;;;;;24.95;7.97;;;;;;;;;;5002026;28;20536;-59
2024/01/28 01:35:49;;;;;;;24.55;8.52;;;;;;;;;;4993678;28;20026;-57
2024/01/28 01:38:14;;;;;;;22.25;8.60;;;;;;;;;;5004800;28;20025;-58
2024/01/28 01:40:40;;;;;;;22.77;7.77;;;;;;;;;;4993000;28;20018;-58
2024/01/28 01:43:09;;;;;;;25.25;8.35;;;;;;;;;;5000658;28;20722;-59
2024/01/28 01:45:34;;;;;;;25.40;8.13;;;;;;;;;;4997031;28;20504;-59
2024/01/28 01:47:59;;;;;;;24.67;8.63;;;;;;;;;;4997149;28;20054;-58
2024/01/28 01:50:25;;;;;;;22.75;7.72;;;;;;;;;;5001616;28;20033;-59
2024/01/28 01:52:50;;;;;;;23.90;8.48;;;;;;;;;;4994760;28;20133;-59
2024/01/28 01:55:16;;;;;;;24.60;8.95;;;;;;;;;;5002266;28;20028;-58
2024/01/28 01:57:42;;;;;;;23.05;8.45;;;;;;;;;;5010648;28;20440;-63
2024/01/28 02:00:08;;;;;;;22.98;8.75;;;;;;;;;;5002157;28;20025;-58
2024/01/28 02:02:33;;;;;;;24.63;8.48;;;;;;;;;;4996983;28;20018;-59
2024/01/28 02:04:58;;;;;;;21.33;8.25;;;;;;;;;;4996372;28;20034;-59
2024/01/28 02:07:24;;;;;;;24.00;7.75;;;;;;;;;;5000126;28;20022;-60
2024/01/28 02:09:49;;;;;;;23.15;8.18;;;;;;;;;;4994837;28;20331;-58
2024/01/28 02:12:15;;;;;;;24.45;7.60;;;;;;;;;;5003303;28;20026;-58
2024/01/28 02:14:40;;;;;;;25.80;8.33;;;;;;;;;;5010286;28;20058;-59
2024/01/28 02:17:05;;;;;;;23.63;8.45;;;;;;;;;;5003791;28;20275;-59
2024/01/28 02:19:30;;;;;;;25.05;7.78;;;;;;;;;;5004218;28;20029;-59
2024/01/28 02:21:56;;;;;;;28.15;7.88;;;;;;;;;;4991192;28;20037;-59
2024/01/28 02:24:21;;;;;;;22.63;7.87;;;;;;;;;;5001633;28;20018;-59
2024/01/28 02:26:46;;;;;;;24.13;7.75;;;;;;;;;;4994509;28;20716;-59
2024/01/28 02:29:11;;;;;;;25.40;8.00;;;;;;;;;;4996186;28;20030;-59
2024/01/28 02:31:36;;;;;;;26.37;8.63;;;;;;;;;;5000056;28;20273;-58
2024/01/28 02:34:02;;;;;;;25.42;8.50;;;;;;;;;;4995044;28;20279;-57
2024/01/28 02:36:28;;;;;;;25.38;7.97;;;;;;;;;;5001235;28;20146;-58
2024/01/28 02:38:54;;;;;;;23.23;8.13;;;;;;;;;;4992811;28;20528;-59
2024/01/28 02:41:19;;;;;;;26.38;8.73;;;;;;;;;;5004376;28;20113;-59
2024/01/28 02:43:45;;;;;;;22.90;8.65;;;;;;;;;;5011456;28;20109;-59
2024/01/28 02:46:10;;;;;;;21.25;8.10;;;;;;;;;;4998913;28;20501;-59
2024/01/28 02:48:35;;;;;;;23.23;8.97;;;;;;;;;;5007540;28;20026;-60
2024/01/28 02:51:00;;;;;;;23.67;8.70;;;;;;;;;;5004359;28;20273;-59
2024/01/28 02:53:25;;;;;;;25.70;8.37;;;;;;;;;;5000027;28;20340;-58
2024/01/28 02:55:50;;;;;;;23.40;8.20;;;;;;;;;;5004814;28;20280;-59
2024/01/28 02:58:16;;;;;;;25.93;8.50;;;;;;;;;;5001914;28;20269;-59
2024/01/28 03:00:41;;;;;;;23.48;8.30;;;;;;;;;;4991450;28;20276;-59
2024/01/28 03:03:08;;;;;;;23.50;8.50;;;;;;;;;;5003027;28;20466;-59
2024/01/28 03:05:33;;;;;;;23.77;8.10;;;;;;;;;;5003035;28;20033;-60
2024/01/28 03:07:59;;;;;;;22.50;8.00;;;;;;;;;;4992389;28;20061;-59
2024/01/28 03:10:24;;;;;;;25.58;7.47;;;;;;;;;;4997544;28;20105;-60
2024/01/28 03:12:49;;;;;;;25.23;7.97;;;;;;;;;;5008513;28;20022;-59
2024/01/28 03:15:16;;;;;;;23.63;8.02;;;;;;;;;;5002939;28;20033;-59
2024/01/28 03:17:41;;;;;;;22.80;8.35;;;;;;;;;;5000861;28;20069;-58
2024/01/28 03:20:07;;;;;;;20.88;7.90;;;;;;;;;;5000077;28;20034;-59
2024/01/28 03:22:32;;;;;;;22.35;8.23;;;;;;;;;;5000463;28;20033;-59
2024/01/28 03:24:57;;;;;;;23.48;8.25;;;;;;;;;;5005679;28;20026;-59
2024/01/28 03:27:22;;;;;;;25.27;7.50;;;;;;;;;;4991160;28;20072;-60
2024/01/28 03:29:47;;;;;;;22.17;7.80;;;;;;;;;;4999676;28;20765;-59
2024/01/28 03:32:13;;;;;;;22.93;7.43;;;;;;;;;;4994505;28;20332;-59
2024/01/28 03:34:38;;;;;;;24.10;8.48;;;;;;;;;;4994596;28;20638;-59
2024/01/28 03:37:03;;;;;;;25.00;8.33;;;;;;;;;;4999803;28;20022;-59
2024/01/28 03:39:29;;;;;;;25.23;9.67;;;;;;;;;;4997935;28;20352;-59
2024/01/28 03:41:54;;;;;;;26.02;9.23;;;;;;;;;;5004823;28;20686;-58
2024/01/28 03:44:22;;;;;;;24.90;8.83;;;;;;;;;;4994885;28;20501;-58
2024/01/28 03:46:47;;;;;;;22.05;7.53;;;;;;;;;;5006881;28;20268;-59
2024/01/28 03:49:13;;;;;;;23.77;8.50;;;;;;;;;;4995141;28;20029;-58
2024/01/28 03:51:38;;;;;;;25.47;7.50;;;;;;;;;;5001402;28;20657;-59
2024/01/28 03:54:03;;;;;;;22.90;7.90;;;;;;;;;;5009915;28;20296;-59
2024/01/28 03:56:28;;;;;;;24.73;7.53;;;;;;;;;;5008458;28;20029;-59
2024/01/28 03:58:53;;;;;;;23.60;7.65;;;;;;;;;;5003518;28;20046;-59
2024/01/28 04:01:28;;;;;;;22.70;7.53;;;;;;;;;;4996161;28;20030;-59
2024/01/28 04:03:57;;;;;;;22.42;7.22;;;;;;;;;;5004634;28;20277;-59
2024/01/28 04:06:22;;;;;;;21.80;7.10;;;;;;;;;;5013651;28;20018;-59
2024/01/28 04:08:49;;;;;;;22.77;7.63;;;;;;;;;;5001231;28;20061;-58
2024/01/28 04:11:14;;;;;;;22.80;6.85;;;;;;;;;;5014119;28;20263;-59
2024/01/28 04:13:39;;;;;;;22.02;7.22;;;;;;;;;;5006574;28;20219;-59
2024/01/28 04:16:05;;;;;;;22.30;6.80;;;;;;;;;;4999389;28;20030;-59
2024/01/28 04:18:30;;;;;;;23.92;7.05;;;;;;;;;;5002904;28;20354;-58
2024/01/28 04:20:56;;;;;;;23.38;7.28;;;;;;;;;;4998353;28;20483;-58
2024/01/28 04:23:21;;;;;;;23.48;7.30;;;;;;;;;;5001016;28;20099;-58
2024/01/28 04:25:46;;;;;;;19.80;6.10;;;;;;;;;;4999760;28;20472;-59
2024/01/28 04:28:11;;;;;;;24.30;6.43;;;;;;;;;;4997966;28;20520;-59
2024/01/28 04:30:36;;;;;;;22.00;6.53;;;;;;;;;;5003069;28;20348;-60
2024/01/28 04:33:02;;;;;;;23.57;6.30;;;;;;;;;;4995594;28;20463;-60
2024/01/28 04:35:27;;;;;;;20.50;6.35;;;;;;;;;;5005523;28;20352;-60
2024/01/28 04:37:52;;;;;;;19.95;6.57;;;;;;;;;;4994435;28;20023;-60
2024/01/28 04:40:17;;;;;;;22.83;6.60;;;;;;;;;;5004694;28;20029;-59
2024/01/28 04:42:43;;;;;;;20.35;6.18;;;;;;;;;;4995631;28;20750;-59
2024/01/28 04:45:10;;;;;;;21.88;6.57;;;;;;;;;;5000488;28;20068;-59
2024/01/28 04:47:36;;;;;;;23.27;6.38;;;;;;;;;;5006823;28;20127;-59
2024/01/28 04:50:01;;;;;;;24.58;6.88;;;;;;;;;;5008822;28;20093;-59
2024/01/28 04:52:26;;;;;;;24.15;7.13;;;;;;;;;;5002346;28;20090;-59
2024/01/28 04:54:51;;;;;;;22.17;6.27;;;;;;;;;;4994688;28;20157;-58
2024/01/28 04:57:17;;;;;;;22.45;6.68;;;;;;;;;;5004909;28;20745;-59
2024/01/28 04:59:42;;;;;;;20.80;6.43;;;;;;;;;;4993900;28;20471;-59
2024/01/28 05:02:07;;;;;;;23.58;7.05;;;;;;;;;;5002186;28;20073;-60
2024/01/28 05:04:32;;;;;;;23.07;6.67;;;;;;;;;;5013149;28;20075;-59
2024/01/28 05:06:59;;;;;;;23.40;6.73;;;;;;;;;;5003972;28;20819;-59
2024/01/28 05:09:24;;;;;;;20.20;5.97;;;;;;;;;;5004425;28;20256;-59
2024/01/28 05:11:49;;;;;;;21.95;6.65;;;;;;;;;;5009726;28;20470;-58
2024/01/28 05:14:14;;;;;;;22.73;6.63;;;;;;;;;;5002948;28;20014;-59
2024/01/28 05:16:41;;;;;;;22.33;6.60;;;;;;;;;;4993953;28;20911;-58
2024/01/28 05:19:06;;;;;;;20.98;6.53;;;;;;;;;;5005277;28;20100;-58
2024/01/28 05:21:32;;;;;;;23.40;6.78;;;;;;;;;;4996011;28;20459;-58
2024/01/28 05:23:57;;;;;;;21.08;6.80;;;;;;;;;;5004183;28;20033;-59
2024/01/28 05:26:22;;;;;;;21.43;6.90;;;;;;;;;;4994221;28;20439;-58
2024/01/28 05:28:47;;;;;;;22.17;6.95;;;;;;;;;;4998807;28;20348;-58
2024/01/28 05:31:12;;;;;;;20.40;6.97;;;;;;;;;;4999589;28;20018;-59
2024/01/28 05:33:38;;;;;;;23.63;7.28;;;;;;;;;;4997821;28;20281;-59
2024/01/28 05:36:13;;;;;;;21.27;6.82;;;;;;;;;;5003883;28;20099;-59
2024/01/28 05:38:38;;;;;;;20.83;6.88;;;;;;;;;;5009910;28;20382;-58
2024/01/28 05:41:03;;;;;;;24.10;7.43;;;;;;;;;;5003627;28;20023;-59
2024/01/28 05:43:29;;;;;;;21.40;6.70;;;;;;;;;;4992894;28;20462;-60
2024/01/28 05:45:54;;;;;;;20.23;6.47;;;;;;;;;;5002827;28;20030;-59
2024/01/28 05:48:19;;;;;;;21.83;6.80;;;;;;;;;;4994146;28;20316;-59
2024/01/28 05:50:44;;;;;;;23.53;7.40;;;;;;;;;;4998308;28;20381;-59
2024/01/28 05:53:09;;;;;;;21.13;6.83;;;;;;;;;;4999701;28;20289;-58
2024/01/28 05:55:35;;;;;;;22.40;6.73;;;;;;;;;;4996029;28;20312;-59
2024/01/28 05:58:00;;;;;;;21.35;7.15;;;;;;;;;;5001454;28;20265;-58
2024/01/28 06:00:25;;;;;;;21.13;7.30;;;;;;;;;;4994331;28;20026;-59
2024/01/28 06:02:50;;;;;;;20.93;6.83;;;;;;;;;;5001165;28;20269;-58
2024/01/28 06:05:15;;;;;;;21.30;7.15;;;;;;;;;;4992584;28;20316;-58
2024/01/28 06:07:40;;;;;;;23.00;7.57;;;;;;;;;;4992577;28;20572;-57
2024/01/28 06:10:06;;;;;;;23.27;7.40;;;;;;;;;;4992739;28;20264;-58
2024/01/28 06:12:31;;;;;;;24.55;7.95;;;;;;;;;;4992697;28;20265;-58
2024/01/28 06:15:02;;;;;;;20.60;7.22;;;;;;;;;;4992416;28;20058;-58
2024/01/28 06:17:27;;;;;;;22.25;7.70;;;;;;;;;;4993094;28;20104;-59
2024/01/28 06:19:52;;;;;;;23.03;6.93;;;;;;;;;;5003407;28;20030;-59
2024/01/28 06:22:17;;;;;;;24.05;8.13;;;;;;;;;;4992186;28;20265;-58
2024/01/28 06:24:44;;;;;;;24.42;8.70;;;;;;;;;;4992109;28;20022;-59
2024/01/28 06:27:09;;;;;;;24.77;8.25;;;;;;;;;;4992479;28;20023;-59
2024/01/28 06:29:34;;;;;;;22.25;6.95;;;;;;;;;;4992334;28;20037;-58
2024/01/28 06:32:00;;;;;;;21.50;7.57;;;;;;;;;;4992004;28;20474;-58
2024/01/28 06:34:25;;;;;;;21.63;7.32;;;;;;;;;;4992147;28;20023;-59
2024/01/28 06:36:51;;;;;;;20.33;7.40;;;;;;;;;;4992149;28;20072;-59
2024/01/28 06:39:16;;;;;;;22.55;7.10;;;;;;;;;;4991916;28;20253;-59
2024/01/28 06:41:43;;;;;;;22.57;7.00;;;;;;;;;;4991875;28;20029;-59
2024/01/28 06:44:08;;;;;;;21.05;6.93;;;;;;;;;;4992098;28;20261;-60
2024/01/28 06:46:33;;;;;;;22.92;7.78;;;;;;;;;;4991897;28;20022;-60
2024/01/28 06:48:59;;;;;;;23.27;7.45;;;;;;;;;;4991743;28;20482;-59
2024/01/28 06:51:24;;;;;;;21.42;7.15;;;;;;;;;;4991750;28;20022;-59
2024/01/28 06:53:51;;;;;;;23.52;7.28;;;;;;;;;;4991912;28;20136;-59
2024/01/28 06:56:17;;;;;;;22.13;7.75;;;;;;;;;;5004120;28;20449;-59
2024/01/28 06:58:42;;;;;;;24.80;7.83;;;;;;;;;;5007993;28;20030;-60
2024/01/28 07:01:09;;;;;;;25.30;7.47;;;;;;;;;;5002601;28;20269;-58
2024/01/28 07:03:35;;;;;;;20.80;7.10;;;;;;;;;;5011144;28;20018;-60
2024/01/28 07:06:00;;;;;;;21.42;6.80;;;;;;;;;;5011000;28;20024;-60
2024/01/28 07:08:25;;;;;;;26.05;7.60;;;;;;;;;;5010825;28;20060;-60
2024/01/28 07:10:50;;;;;;;22.77;8.03;;;;;;;;;;5010673;28;20018;-60
2024/01/28 07:13:16;;;;;;;24.00;7.97;;;;;;;;;;5010676;28;20352;-60
2024/01/28 07:15:41;;;;;;;22.33;7.35;;;;;;;;;;5010648;28;20026;-59
2024/01/28 07:18:07;;;;;;;20.52;7.15;;;;;;;;;;5010903;28;20102;-59
2024/01/28 07:20:32;;;;;;;21.60;7.80;;;;;;;;;;5010688;28;20018;-60
2024/01/28 07:22:57;;;;;;;21.48;7.03;;;;;;;;;;5009534;28;20014;-60
2024/01/28 07:25:22;;;;;;;22.45;7.78;;;;;;;;;;5000522;28;20077;-60
2024/01/28 07:27:47;;;;;;;23.60;7.60;;;;;;;;;;4994378;28;20534;-60
2024/01/28 07:30:13;;;;;;;22.13;7.75;;;;;;;;;;5001177;28;20018;-60
2024/01/28 07:32:38;;;;;;;23.48;7.40;;;;;;;;;;5000873;28;20030;-59
2024/01/28 07:35:04;;;;;;;24.55;8.05;;;;;;;;;;5001445;28;20057;-59
2024/01/28 07:37:29;;;;;;;24.88;7.40;;;;;;;;;;5004014;28;20042;-59
2024/01/28 07:39:54;;;;;;;24.80;8.40;;;;;;;;;;5000840;28;20006;-58
2024/01/28 07:42:19;;;;;;;23.90;8.10;;;;;;;;;;5000969;28;20018;-59
2024/01/28 07:44:45;;;;;;;22.87;7.43;;;;;;;;;;4999308;28;20374;-60
2024/01/28 07:47:10;;;;;;;21.95;8.70;;;;;;;;;;5001993;28;20261;-59
2024/01/28 07:49:35;;;;;;;23.55;8.38;;;;;;;;;;5000549;28;20499;-59
2024/01/28 07:52:00;;;;;;;21.17;8.23;;;;;;;;;;4999603;28;20189;-59
2024/01/28 07:54:26;;;;;;;24.23;7.90;;;;;;;;;;5001415;28;20036;-59
2024/01/28 07:56:51;;;;;;;22.80;7.70;;;;;;;;;;4999649;28;20273;-59
2024/01/28 07:59:17;;;;;;;23.55;7.50;;;;;;;;;;5000442;28;20343;-59
2024/01/28 08:01:42;;;;;;;21.98;7.68;;;;;;;;;;4998357;28;20096;-59
2024/01/28 08:04:08;;;;;;;21.55;7.72;;;;;;;;;;4999749;28;20576;-59
2024/01/28 08:06:33;;;;;;;24.45;7.70;;;;;;;;;;4999554;28;20030;-59
2024/01/28 08:09:00;;;;;;;22.58;8.00;;;;;;;;;;4998345;28;20068;-58
2024/01/28 08:11:25;;;;;;;24.88;8.95;;;;;;;;;;5004785;28;20026;-60
2024/01/28 08:13:50;;;;;;;23.83;8.50;;;;;;;;;;5007627;28;20400;-60
2024/01/28 08:16:16;;;;;;;25.53;9.00;;;;;;;;;;5008684;28;20030;-59
2024/01/28 08:18:41;;;;;;;23.33;8.18;;;;;;;;;;5007056;28;20249;-59
2024/01/28 08:21:06;;;;;;;24.55;8.80;;;;;;;;;;5002950;28;20046;-60
2024/01/28 08:23:33;;;;;;;22.92;8.05;;;;;;;;;;4998031;28;20092;-60
2024/01/28 08:25:58;;;;;;;23.10;7.90;;;;;;;;;;4992873;28;20034;-60
2024/01/28 08:28:23;;;;;;;21.33;8.05;;;;;;;;;;4992976;28;20494;-58
2024/01/28 08:30:49;;;;;;;27.23;11.77;;;;;;;;;;4991116;28;20186;-59
2024/01/28 08:33:14;;;;;;;24.95;8.70;;;;;;;;;;4992569;28;20030;-59
2024/01/28 08:35:39;;;;;;;25.15;8.05;;;;;;;;;;4992628;28;20041;-58
2024/01/28 08:38:04;;;;;;;22.67;8.20;;;;;;;;;;4992522;28;20076;-59
2024/01/28 08:40:30;;;;;;;22.50;7.78;;;;;;;;;;4992571;28;20026;-59
2024/01/28 08:42:55;;;;;;;24.33;8.90;;;;;;;;;;4992184;28;20446;-60
2024/01/28 08:45:21;;;;;;;26.50;9.52;;;;;;;;;;4992303;28;20036;-60
2024/01/28 08:47:46;;;;;;;22.83;8.17;;;;;;;;;;4992217;28;20026;-60
2024/01/28 08:50:12;;;;;;;22.63;7.60;;;;;;;;;;4992224;28;20748;-59
2024/01/28 08:52:37;;;;;;;25.00;7.93;;;;;;;;;;4991980;28;20050;-61
2024/01/28 08:55:02;;;;;;;24.90;9.20;;;;;;;;;;4995878;28;20040;-60
2024/01/28 08:57:27;;;;;;;26.83;9.50;;;;;;;;;;5000540;28;20629;-59
2024/01/28 08:59:53;;;;;;;21.55;7.88;;;;;;;;;;4992122;28;20025;-59
2024/01/28 09:02:18;;;;;;;21.35;7.38;;;;;;;;;;4991970;28;20026;-58
2024/01/28 09:04:43;;;;;;;21.40;7.45;;;;;;;;;;4991875;28;20019;-59
2024/01/28 09:07:08;;;;;;;24.27;8.43;;;;;;;;;;5003074;28;20041;-58
2024/01/28 09:09:33;;;;;;;22.20;7.75;;;;;;;;;;4994358;28;20028;-58
2024/01/28 09:11:59;;;;;;;22.70;7.70;;;;;;;;;;4995630;28;20022;-59
2024/01/28 09:14:24;;;;;;;23.45;8.38;;;;;;;;;;5003896;28;20292;-58
2024/01/28 09:16:49;;;;;;;26.38;7.72;;;;;;;;;;5012845;28;20413;-59
2024/01/28 09:19:14;;;;;;;24.00;7.82;;;;;;;;;;5010991;28;20293;-58
2024/01/28 09:21:40;;;;;;;23.20;8.65;;;;;;;;;;5003753;28;20030;-59
2024/01/28 09:24:05;;;;;;;21.57;7.20;;;;;;;;;;5001825;28;20041;-59
2024/01/28 09:26:31;;;;;;;19.63;6.85;;;;;;;;;;5000733;28;20780;-58
2024/01/28 09:28:56;;;;;;;23.17;8.13;;;;;;;;;;5012290;28;20113;-58
2024/01/28 09:31:22;;;;;;;22.88;7.60;;;;;;;;;;5012237;28;20534;-58
2024/01/28 09:33:47;;;;;;;19.95;7.03;;;;;;;;;;5012466;28;20014;-58
2024/01/28 09:36:12;;;;;;;21.48;8.57;;;;;;;;;;5011215;28;20489;-58
2024/01/28 09:38:39;;;;;;;19.50;7.32;;;;;;;;;;5010888;28;20457;-59
2024/01/28 09:41:11;;;;;;;24.92;7.47;;;;;;;;;;5011697;28;20018;-60
2024/01/28 09:43:39;;;;;;;23.00;7.53;;;;;;;;;;5003193;28;20030;-61
2024/01/28 09:46:05;;;;;;;22.92;7.75;;;;;;;;;;5006005;28;20025;-59
2024/01/28 09:48:30;;;;;;;21.42;6.80;;;;;;;;;;4997210;28;20026;-58
2024/01/28 09:50:55;;;;;;;21.15;7.30;;;;;;;;;;4992343;28;20022;-58
2024/01/28 09:53:20;;;;;;;20.95;7.30;;;;;;;;;;4992260;28;20483;-59
2024/01/28 09:55:46;;;;;;;22.75;7.63;;;;;;;;;;4992477;28;20496;-59
2024/01/28 09:58:11;;;;;;;22.05;7.60;;;;;;;;;;4992853;28;20596;-58
2024/01/28 10:00:37;;;;;;;21.23;7.03;;;;;;;;;;4992492;28;20030;-57
2024/01/28 10:03:03;;;;;;;23.58;7.75;;;;;;;;;;4992398;28;20030;-58
2024/01/28 10:05:28;;;;;;;19.60;6.90;;;;;;;;;;4992267;28;20096;-59
2024/01/28 10:08:03;;;;;;;21.52;8.25;;;;;;;;;;4992151;28;20484;-59
2024/01/28 10:10:29;;;;;;;23.70;7.43;;;;;;;;;;4991903;28;20038;-60
2024/01/28 10:12:55;;;;;;;21.38;6.57;;;;;;;;;;4992139;28;20030;-59
2024/01/28 10:15:21;;;;;;;22.10;7.10;;;;;;;;;;4995400;28;20025;-59
2024/01/28 10:17:48;;;;;;;21.77;7.00;;;;;;;;;;5008286;28;20026;-59
2024/01/28 10:20:15;;;;;;;21.10;7.10;;;;;;;;;;5010574;28;20024;-58
2024/01/28 10:22:40;;;;;;;18.92;6.53;;;;;;;;;;5004154;28;20089;-59
2024/01/28 10:25:06;;;;;;;21.55;6.72;;;;;;;;;;4991529;28;20478;-57
2024/01/28 10:27:31;;;;;;;19.40;6.22;;;;;;;;;;4990857;28;20049;-58
2024/01/28 10:29:56;;;;;;;21.23;6.87;;;;;;;;;;4991328;28;20104;-58
2024/01/28 10:32:22;;;;;;;21.35;6.65;;;;;;;;;;4990587;28;20265;-58
2024/01/28 10:34:47;;;;;;;20.60;6.10;;;;;;;;;;4990643;28;20109;-59
2024/01/28 10:37:13;;;;;;;19.87;6.00;;;;;;;;;;4990302;28;20022;-58
2024/01/28 10:39:40;;;;;;;18.83;6.07;;;;;;;;;;4990623;28;20265;-59
2024/01/28 10:42:09;;;;;;;19.98;6.57;;;;;;;;;;4991044;28;20038;-63
2024/01/28 10:44:37;;;;;;;20.55;6.30;;;;;;;;;;4990839;28;20088;-59
2024/01/28 10:47:06;;;;;;;19.70;6.40;;;;;;;;;;5000777;28;20022;-58
2024/01/28 10:49:34;;;;;;;21.70;6.45;;;;;;;;;;4991365;28;20097;-58
2024/01/28 10:52:01;;;;;;;21.40;7.10;;;;;;;;;;4990911;28;20419;-58
2024/01/28 10:54:27;;;;;;;19.10;5.78;;;;;;;;;;4991544;28;20048;-59
2024/01/28 10:56:53;;;;;;;20.33;5.97;;;;;;;;;;4991370;28;20018;-58
2024/01/28 10:59:19;;;;;;;20.42;6.03;;;;;;;;;;4991881;28;20030;-59
2024/01/28 11:01:44;;;;;;;20.38;6.35;;;;;;;;;;4990980;28;20032;-59
2024/01/28 11:04:09;;;;;;;20.83;7.03;;;;;;;;;;4990753;28;20061;-60
2024/01/28 11:06:35;;;;;;;20.20;5.93;;;;;;;;;;4991016;28;20026;-58
2024/01/28 11:09:00;;;;;;;19.58;5.75;;;;;;;;;;4994182;28;20034;-58
2024/01/28 11:11:26;;;;;;;19.73;6.20;;;;;;;;;;5003012;28;20092;-59
2024/01/28 11:13:51;;;;;;;20.23;6.40;;;;;;;;;;5010703;28;20092;-58
2024/01/28 11:16:18;;;;;;;20.30;5.82;;;;;;;;;;5010591;28;20472;-58
2024/01/28 11:19:00;;;;;;;18.17;5.40;;;;;;;;;;5009906;28;20128;-58
2024/01/28 11:21:28;;;;;;;21.08;5.90;;;;;;;;;;5010543;28;20065;-61
2024/01/28 11:23:54;;;;;;;18.75;5.43;;;;;;;;;;5010428;28;20055;-62
2024/01/28 11:26:20;;;;;;;21.65;6.38;;;;;;;;;;5010091;28;20030;-60
2024/01/28 11:28:45;;;;;;;20.52;6.10;;;;;;;;;;5010284;28;20088;-59
2024/01/28 11:31:19;;;;;;;21.02;5.75;;;;;;;;;;5007792;28;20072;-59
2024/01/28 11:33:45;;;;;;;19.15;5.75;;;;;;;;;;5010676;28;20057;-59
2024/01/28 11:36:11;;;;;;;18.20;5.68;;;;;;;;;;4999322;28;20037;-59
2024/01/28 11:38:39;;;;;;;17.67;5.60;;;;;;;;;;4990798;28;20026;-59
2024/01/28 11:41:05;;;;;;;21.27;6.65;;;;;;;;;;4990559;28;20066;-49
2024/01/28 11:43:30;;;;;;;17.92;5.28;;;;;;;;;;4990602;28;20061;-48
2024/01/28 11:45:57;;;;;;;20.55;5.70;;;;;;;;;;4998434;28;20777;-49
2024/01/28 11:48:23;;;;;;;23.27;6.07;;;;;;;;;;4994119;28;20034;-47
2024/01/28 11:50:48;;;;;;;18.65;5.30;;;;;;;;;;4995023;28;20504;-47
2024/01/28 11:53:13;;;;;;;20.83;5.63;;;;;;;;;;4998945;28;20060;-47
2024/01/28 11:55:38;;;;;;;19.40;5.60;;;;;;;;;;5001320;28;20449;-49
2024/01/28 11:58:04;;;;;;;20.53;6.63;;;;;;;;;;4998445;28;20285;-47
2024/01/28 12:00:29;;;;;;;20.27;5.97;;;;;;;;;;4996240;28;20360;-49
2024/01/28 12:02:54;;;;;;;18.25;5.32;;;;;;;;;;5007121;28;20490;-49
2024/01/28 12:05:19;;;;;;;17.23;5.32;;;;;;;;;;5006913;28;20085;-48
2024/01/28 12:07:45;;;;;;;19.45;5.50;;;;;;;;;;5012008;28;20061;-49
2024/01/28 12:10:12;;;;;;;19.33;5.93;;;;;;;;;;5013278;28;20057;-47
2024/01/28 12:12:38;;;;;;;22.10;5.60;;;;;;;;;;5008696;28;20022;-47
2024/01/28 12:15:04;;;;;;;19.58;5.45;;;;;;;;;;5000313;28;20061;-50
2024/01/28 12:17:32;;;;;;;20.02;5.70;;;;;;;;;;5009928;28;20053;-49
2024/01/28 12:19:58;;;;;;;19.73;5.45;;;;;;;;;;5001914;28;20525;-48
2024/01/28 12:22:24;;;;;;;19.75;5.53;;;;;;;;;;4993764;28;20046;-47
2024/01/28 12:24:49;;;;;;;19.35;5.60;;;;;;;;;;4993366;28;20019;-50
2024/01/28 12:27:16;;;;;;;18.17;5.28;;;;;;;;;;4993398;28;20402;-49
2024/01/28 12:29:41;;;;;;;19.63;5.80;;;;;;;;;;4994358;28;20113;-48
2024/01/28 12:32:08;;;;;;;17.23;5.30;;;;;;;;;;4997027;28;20129;-48
2024/01/28 12:34:34;;;;;;;19.98;4.95;;;;;;;;;;5003670;28;20382;-50
2024/01/28 12:36:59;;;;;;;18.73;4.93;;;;;;;;;;5000611;28;20553;-47
2024/01/28 12:39:24;;;;;;;20.70;5.33;;;;;;;;;;5006585;28;20425;-47
2024/01/28 12:41:49;;;;;;;19.23;5.60;;;;;;;;;;5006508;28;20850;-49
2024/01/28 12:44:14;;;;;;;19.27;5.50;;;;;;;;;;5007576;28;20033;-49
2024/01/28 12:46:40;;;;;;;19.67;5.80;;;;;;;;;;4995474;28;20456;-48
2024/01/28 12:49:05;;;;;;;18.92;5.85;;;;;;;;;;4992324;28;20270;-50
2024/01/28 12:51:30;;;;;;;18.37;5.30;;;;;;;;;;4992147;28;20039;-51
2024/01/28 12:53:55;;;;;;;19.10;5.33;;;;;;;;;;4988844;28;20308;-48
2024/01/28 12:56:20;;;;;;;18.60;5.70;;;;;;;;;;4988893;28;20278;-53
2024/01/28 12:58:46;;;;;;;18.70;5.70;;;;;;;;;;4989147;28;20029;-49
2024/01/28 13:01:11;;;;;;;18.00;5.63;;;;;;;;;;4988972;28;20118;-48
2024/01/28 13:03:36;;;;;;;18.05;5.80;;;;;;;;;;4988895;28;20805;-49
2024/01/28 13:06:01;;;;;;;17.55;5.32;;;;;;;;;;4988689;28;20540;-52
2024/01/28 13:08:27;;;;;;;19.67;5.78;;;;;;;;;;4989238;28;20133;-49
2024/01/28 13:10:54;;;;;;;16.50;4.70;;;;;;;;;;5009051;28;20041;-47
2024/01/28 13:13:19;;;;;;;18.10;5.70;;;;;;;;;;5009956;28;20253;-47
2024/01/28 13:15:44;;;;;;;18.73;5.30;;;;;;;;;;5010318;28;20087;-48
2024/01/28 13:18:09;;;;;;;18.02;5.32;;;;;;;;;;5010150;28;20352;-46
2024/01/28 13:20:34;;;;;;;18.83;5.70;;;;;;;;;;5008385;28;20394;-49
2024/01/28 13:23:00;;;;;;;20.75;5.20;;;;;;;;;;5009928;28;20080;-48
2024/01/28 13:25:25;;;;;;;19.55;5.45;;;;;;;;;;5009848;28;20030;-47
2024/01/28 13:27:50;;;;;;;18.30;5.27;;;;;;;;;;5009821;28;20171;-46
2024/01/28 13:30:16;;;;;;;18.75;5.50;;;;;;;;;;5010106;28;20296;-47
2024/01/28 13:32:42;;;;;;;16.87;5.20;;;;;;;;;;5009946;28;20076;-48
2024/01/28 13:35:09;;;;;;;18.42;5.25;;;;;;;;;;5009974;28;20104;-47
2024/01/28 13:37:34;;;;;;;19.35;5.28;;;;;;;;;;5000060;28;20447;-49
2024/01/28 13:40:00;;;;;;;18.55;5.20;;;;;;;;;;5000926;28;20611;-48
2024/01/28 13:42:25;;;;;;;20.02;5.45;;;;;;;;;;5004216;28;20387;-49
2024/01/28 13:44:51;;;;;;;17.13;5.18;;;;;;;;;;4994354;28;20038;-47
2024/01/28 13:47:16;;;;;;;18.40;4.90;;;;;;;;;;4997510;28;20473;-48
2024/01/28 13:49:42;;;;;;;18.67;5.40;;;;;;;;;;5001832;28;20042;-48
2024/01/28 13:52:07;;;;;;;18.17;5.07;;;;;;;;;;4961940;28;1082066;-48
2024/01/28 13:54:32;;;;;;;19.87;5.60;;;;;;;;;;4993188;28;20977;-50
2024/01/28 13:56:57;;;;;;;16.93;4.87;;;;;;;;;;4998141;28;20038;-50
2024/01/28 13:59:24;;;;;;;17.25;5.15;;;;;;;;;;4998791;28;20270;-51
2024/01/28 14:01:49;;;;;;;18.58;4.78;;;;;;;;;;4997917;28;20029;-49
2024/01/28 14:04:14;;;;;;;19.70;5.10;;;;;;;;;;4995908;28;20414;-47
2024/01/28 14:06:39;;;;;;;18.55;5.40;;;;;;;;;;4995496;28;20290;-49
2024/01/28 14:09:05;;;;;;;18.05;5.20;;;;;;;;;;4998404;28;20517;-52
2024/01/28 14:11:30;;;;;;;18.35;4.85;;;;;;;;;;4994314;28;20088;-49
2024/01/28 14:13:55;;;;;;;16.43;5.30;;;;;;;;;;4999524;28;20052;-49
2024/01/28 14:16:21;;;;;;;18.33;4.90;;;;;;;;;;4991157;28;20030;-50
2024/01/28 14:18:46;;;;;;;18.50;5.30;;;;;;;;;;4995435;28;20309;-48